createdAt,value
2017-12-02T00:00:30.190Z,3.74
2017-12-02T00:02:58.485Z,3.59
2017-12-02T00:05:26.743Z,3.58
2017-12-02T00:07:55.053Z,3.56
2017-12-02T00:10:23.314Z,3.69
2017-12-02T00:12:52.498Z,3.87
2017-12-02T00:15:20.971Z,3.95
2017-12-02T00:17:49.238Z,3.65
2017-12-02T00:20:17.525Z,3.53
2017-12-02T00:22:45.844Z,3.56
2017-12-02T00:25:14.218Z,3.44
2017-12-02T00:27:48.282Z,3.46
2017-12-02T00:30:16.558Z,3.52
2017-12-02T00:32:44.868Z,3.37
2017-12-02T00:35:13.169Z,3.30
2017-12-02T00:37:41.446Z,3.27
2017-12-02T00:40:09.707Z,3.32
2017-12-02T00:42:38.597Z,3.35
2017-12-02T00:45:06.896Z,3.54
2017-12-02T00:47:35.180Z,3.68
2017-12-02T00:50:04.378Z,3.75
2017-12-02T00:52:32.666Z,3.60
2017-12-02T00:55:00.973Z,3.75
2017-12-02T00:57:29.234Z,3.53
2017-12-02T00:59:57.515Z,3.51
2017-12-02T01:02:25.815Z,3.61
2017-12-02T01:04:54.114Z,3.69
2017-12-02T01:07:22.403Z,3.70
2017-12-02T01:09:50.692Z,3.76
2017-12-02T01:12:18.991Z,3.73
2017-12-02T01:14:47.270Z,3.67
2017-12-02T01:17:15.555Z,3.37
2017-12-02T01:19:43.847Z,3.37
2017-12-02T01:22:12.149Z,3.37
2017-12-02T01:24:40.411Z,3.46
2017-12-02T01:27:08.689Z,3.53
2017-12-02T01:29:36.955Z,3.50
2017-12-02T01:32:05.266Z,3.37
2017-12-02T01:34:33.550Z,3.38
2017-12-02T01:37:01.808Z,3.46
2017-12-02T01:39:30.098Z,3.44
2017-12-02T01:41:58.410Z,3.35
2017-12-02T01:44:26.685Z,3.47
2017-12-02T01:46:54.968Z,3.48
2017-12-02T01:49:23.280Z,3.42
2017-12-02T01:51:51.874Z,3.30
2017-12-02T01:54:20.172Z,3.32
2017-12-02T01:56:48.459Z,3.27
2017-12-02T01:59:16.738Z,3.18
2017-12-02T02:01:45.045Z,3.31
2017-12-02T02:04:13.329Z,3.24
2017-12-02T02:06:41.619Z,3.16
2017-12-02T02:09:09.892Z,3.11
2017-12-02T02:11:38.177Z,3.23
2017-12-02T02:14:06.445Z,3.17
2017-12-02T02:16:34.727Z,3.24
2017-12-02T02:19:03.096Z,3.16
2017-12-02T02:21:31.922Z,3.12
2017-12-02T02:24:00.230Z,3.01
2017-12-02T02:26:28.511Z,3.19
2017-12-02T02:28:56.786Z,3.07
2017-12-02T02:31:25.099Z,2.88
2017-12-02T02:33:53.420Z,2.88
2017-12-02T02:36:21.672Z,2.80
2017-12-02T02:38:49.956Z,2.78
2017-12-02T02:41:18.231Z,2.81
2017-12-02T02:43:46.525Z,2.70
2017-12-02T02:46:14.821Z,2.69
2017-12-02T02:48:43.119Z,2.59
2017-12-02T02:51:11.415Z,2.39
2017-12-02T02:53:39.715Z,2.44
2017-12-02T02:56:07.995Z,2.50
2017-12-02T02:58:36.333Z,2.56
2017-12-02T03:01:05.710Z,2.61
2017-12-02T03:03:34.038Z,2.65
2017-12-02T03:06:02.311Z,2.49
2017-12-02T03:08:30.576Z,2.43
2017-12-02T03:10:58.851Z,2.46
2017-12-02T03:13:27.236Z,2.46
2017-12-02T03:15:55.522Z,2.46
2017-12-02T03:18:23.793Z,2.55
2017-12-02T03:20:52.763Z,2.58
2017-12-02T03:23:21.035Z,2.70
2017-12-02T03:25:49.337Z,2.79
2017-12-02T03:28:17.625Z,2.75
2017-12-02T03:30:45.923Z,2.94
2017-12-02T03:33:14.223Z,3.01
2017-12-02T03:35:42.493Z,3.03
2017-12-02T03:38:10.810Z,2.95
2017-12-02T03:40:40.044Z,2.93
2017-12-02T03:43:08.379Z,2.98
2017-12-02T03:45:36.863Z,2.89
2017-12-02T03:48:06.071Z,2.92
2017-12-02T03:50:34.342Z,2.93
2017-12-02T03:53:02.674Z,2.95
2017-12-02T03:55:30.955Z,2.87
2017-12-02T03:57:59.260Z,2.84
2017-12-02T04:00:27.520Z,2.93
2017-12-02T04:02:55.806Z,2.95
2017-12-02T04:05:24.128Z,2.93
2017-12-02T04:07:52.509Z,2.84
2017-12-02T04:10:20.786Z,2.85
2017-12-02T04:12:49.060Z,2.93
2017-12-02T04:15:17.376Z,2.96
2017-12-02T04:17:45.646Z,3.00
2017-12-02T04:20:13.944Z,2.85
2017-12-02T04:22:42.215Z,3.11
2017-12-02T04:25:10.526Z,3.06
2017-12-02T04:27:38.820Z,2.98
2017-12-02T04:30:07.248Z,3.06
2017-12-02T04:32:35.526Z,3.09
2017-12-02T04:35:03.816Z,3.10
2017-12-02T04:37:32.124Z,3.11
2017-12-02T04:40:00.386Z,3.14
2017-12-02T04:42:28.681Z,3.17
2017-12-02T04:44:56.956Z,3.11
2017-12-02T04:47:25.259Z,2.96
2017-12-02T04:49:53.543Z,3.07
2017-12-02T04:52:21.987Z,3.13
2017-12-02T04:54:50.274Z,3.17
2017-12-02T04:57:18.551Z,3.16
2017-12-02T04:59:46.860Z,3.20
2017-12-02T05:02:15.131Z,3.07
2017-12-02T05:04:43.431Z,3.16
2017-12-02T05:07:11.740Z,3.13
2017-12-02T05:09:39.989Z,3.08
2017-12-02T05:12:08.326Z,3.17
2017-12-02T05:14:36.644Z,2.91
2017-12-02T05:17:05.102Z,3.24
2017-12-02T05:19:33.382Z,3.34
2017-12-02T05:22:01.675Z,3.25
2017-12-02T05:24:29.991Z,3.19
2017-12-02T05:26:58.271Z,3.19
2017-12-02T05:29:26.550Z,3.08
2017-12-02T05:31:54.850Z,3.17
2017-12-02T05:34:23.137Z,3.25
2017-12-02T05:36:51.654Z,3.26
2017-12-02T05:39:19.948Z,3.35
2017-12-02T05:41:48.226Z,3.28
2017-12-02T05:44:16.527Z,3.33
2017-12-02T05:46:44.781Z,3.33
2017-12-02T05:49:13.104Z,3.46
2017-12-02T05:51:41.459Z,3.42
2017-12-02T05:54:09.733Z,3.29
2017-12-02T05:56:38.014Z,3.26
2017-12-02T05:59:06.280Z,3.25
2017-12-02T06:01:34.571Z,3.29
2017-12-02T06:04:02.839Z,3.38
2017-12-02T06:06:31.131Z,3.29
2017-12-02T06:08:59.431Z,3.31
2017-12-02T06:11:27.704Z,3.33
2017-12-02T06:13:55.982Z,3.38
2017-12-02T06:16:24.295Z,3.30
2017-12-02T06:18:52.546Z,3.34
2017-12-02T06:21:20.823Z,3.24
2017-12-02T06:23:49.319Z,3.35
2017-12-02T06:26:17.603Z,3.37
2017-12-02T06:28:45.906Z,3.41
2017-12-02T06:31:14.207Z,3.46
2017-12-02T06:33:42.476Z,3.50
2017-12-02T06:36:10.766Z,3.53
2017-12-02T06:38:39.039Z,3.61
2017-12-02T06:41:07.422Z,3.52
2017-12-02T06:43:35.696Z,3.52
2017-12-02T06:46:05.034Z,3.60
2017-12-02T06:48:33.319Z,3.60
2017-12-02T06:51:01.625Z,3.68
2017-12-02T06:53:29.911Z,3.66
2017-12-02T06:55:58.247Z,3.80
2017-12-02T06:58:26.544Z,3.79
2017-12-02T07:00:54.826Z,3.70
2017-12-02T07:03:23.927Z,3.66
2017-12-02T07:05:52.204Z,3.57
2017-12-02T07:08:20.497Z,3.62
2017-12-02T07:10:48.790Z,3.64
2017-12-02T07:13:17.089Z,3.49
2017-12-02T07:15:45.343Z,3.45
2017-12-02T07:18:13.709Z,3.49
2017-12-02T07:20:41.968Z,3.06
2017-12-02T07:23:10.327Z,3.61
2017-12-02T07:25:38.585Z,3.53
2017-12-02T07:28:06.935Z,3.50
2017-12-02T07:30:35.233Z,3.20
2017-12-02T07:33:03.508Z,3.11
2017-12-02T07:35:31.872Z,3.26
2017-12-02T07:38:00.128Z,3.41
2017-12-02T07:40:28.411Z,3.53
2017-12-02T07:42:56.676Z,3.59
2017-12-02T07:45:24.972Z,3.58
2017-12-02T07:47:53.241Z,3.66
2017-12-02T07:50:22.212Z,3.65
2017-12-02T07:52:56.419Z,3.62
2017-12-02T07:55:24.729Z,3.62
2017-12-02T07:57:52.991Z,3.71
2017-12-02T08:00:21.252Z,3.81
2017-12-02T08:02:49.607Z,3.85
2017-12-02T08:05:23.964Z,3.76
2017-12-02T08:07:52.309Z,3.85
2017-12-02T08:10:23.406Z,3.84
2017-12-02T08:12:51.684Z,3.88
2017-12-02T08:15:20.083Z,3.79
2017-12-02T08:17:48.406Z,3.66
2017-12-02T08:20:16.715Z,3.53
2017-12-02T08:22:45.012Z,3.59
2017-12-02T08:25:13.322Z,3.81
2017-12-02T08:27:41.626Z,3.90
2017-12-02T08:30:09.885Z,3.49
2017-12-02T08:32:38.210Z,3.11
2017-12-02T08:35:06.511Z,3.06
2017-12-02T08:37:35.652Z,3.08
2017-12-02T08:40:04.035Z,3.13
2017-12-02T08:42:32.277Z,3.19
2017-12-02T08:45:00.575Z,3.31
2017-12-02T08:47:28.874Z,3.46
2017-12-02T08:49:57.234Z,3.55
2017-12-02T08:52:25.487Z,3.64
2017-12-02T08:54:53.787Z,3.79
2017-12-02T08:57:22.127Z,3.78
2017-12-02T08:59:50.442Z,3.85
2017-12-02T09:02:18.791Z,4.05
2017-12-02T09:04:47.066Z,4.16
2017-12-02T09:07:15.456Z,4.21
2017-12-02T09:09:43.723Z,3.91
2017-12-02T09:12:11.997Z,4.05
2017-12-02T09:14:40.280Z,4.21
2017-12-02T09:17:08.612Z,4.13
2017-12-02T09:19:36.938Z,3.84
2017-12-02T09:22:05.206Z,4.03
2017-12-02T09:24:33.484Z,3.91
2017-12-02T09:27:01.803Z,3.91
2017-12-02T09:29:30.040Z,3.63
2017-12-02T09:31:58.359Z,3.82
2017-12-02T09:34:26.657Z,3.78
2017-12-02T09:36:54.956Z,3.79
2017-12-02T09:39:23.246Z,3.85
2017-12-02T09:41:51.515Z,3.93
2017-12-02T09:44:19.828Z,4.00
2017-12-02T09:46:48.166Z,4.07
2017-12-02T09:49:22.418Z,4.22
2017-12-02T09:51:50.780Z,4.24
2017-12-02T09:54:19.042Z,4.17
2017-12-02T09:56:53.403Z,4.21
2017-12-02T09:59:21.721Z,4.28
2017-12-02T10:04:18.099Z,4.32
2017-12-02T10:06:46.387Z,4.26
2017-12-02T10:09:14.647Z,4.43
2017-12-02T10:11:42.932Z,4.15
2017-12-02T10:14:11.207Z,3.96
2017-12-02T10:16:39.487Z,3.57
2017-12-02T10:19:07.761Z,3.49
2017-12-02T10:21:36.134Z,3.90
2017-12-02T10:24:05.272Z,3.87
2017-12-02T10:26:33.607Z,4.03
2017-12-02T10:31:34.642Z,4.26
2017-12-02T10:34:03.126Z,4.34
2017-12-02T10:36:31.381Z,4.43
2017-12-02T10:38:59.686Z,4.49
2017-12-02T10:41:27.968Z,4.40
2017-12-02T10:43:58.065Z,4.53
2017-12-02T10:46:26.401Z,4.82
2017-12-02T10:48:54.717Z,4.65
2017-12-02T10:51:23.147Z,4.51
2017-12-02T10:53:52.098Z,4.78
2017-12-02T10:56:20.388Z,4.73
2017-12-02T10:58:48.722Z,4.77
2017-12-02T11:01:17.007Z,4.93
2017-12-02T11:03:45.302Z,4.67
2017-12-02T11:06:13.687Z,4.49
2017-12-02T11:11:15.512Z,4.40
2017-12-02T11:13:43.839Z,4.58
2017-12-02T11:16:18.135Z,4.86
2017-12-02T11:18:46.485Z,4.89
2017-12-02T11:21:14.740Z,4.96
2017-12-02T11:23:43.216Z,4.93
2017-12-02T11:26:11.507Z,4.95
2017-12-02T11:28:39.838Z,4.94
2017-12-02T11:31:08.153Z,5.02
2017-12-02T11:33:36.424Z,5.26
2017-12-02T11:36:05.458Z,5.24
2017-12-02T11:38:33.731Z,5.18
2017-12-02T11:41:02.069Z,5.32
2017-12-02T11:43:30.392Z,5.30
2017-12-02T11:45:58.707Z,5.31
2017-12-02T11:48:26.993Z,5.37
2017-12-02T11:50:55.311Z,5.27
2017-12-02T11:53:23.592Z,5.37
2017-12-02T11:55:51.893Z,5.39
2017-12-02T11:58:20.183Z,5.46
2017-12-02T12:00:48.551Z,5.36
2017-12-02T12:03:16.841Z,5.45
2017-12-02T12:05:45.119Z,5.66
2017-12-02T12:08:13.479Z,5.56
2017-12-02T12:10:41.731Z,5.63
2017-12-02T12:13:10.167Z,5.70
2017-12-02T12:15:38.452Z,5.55
2017-12-02T12:18:06.734Z,5.65
2017-12-02T12:20:35.130Z,5.75
2017-12-02T12:23:03.380Z,5.96
2017-12-02T12:25:31.670Z,6.10
2017-12-02T12:27:59.947Z,6.18
2017-12-02T12:30:28.321Z,6.24
2017-12-02T12:32:58.167Z,6.29
2017-12-02T12:35:26.769Z,6.22
2017-12-02T12:37:55.028Z,6.31
2017-12-02T12:40:23.378Z,6.51
2017-12-02T12:42:51.620Z,6.47
2017-12-02T12:45:19.918Z,6.59
2017-12-02T12:47:48.211Z,6.52
2017-12-02T12:50:16.466Z,6.49
2017-12-02T12:52:44.798Z,6.68
2017-12-02T12:55:13.084Z,6.95
2017-12-02T12:57:41.374Z,7.00
2017-12-02T13:00:09.654Z,6.94
2017-12-02T13:02:38.802Z,6.94
2017-12-02T13:05:07.065Z,7.04
2017-12-02T13:07:35.428Z,7.05
2017-12-02T13:10:03.710Z,7.20
2017-12-02T13:12:32.018Z,7.22
2017-12-02T13:15:00.343Z,7.17
2017-12-02T13:17:28.630Z,6.82
2017-12-02T13:19:57.011Z,7.25
2017-12-02T13:22:25.255Z,7.36
2017-12-02T13:24:53.586Z,7.43
2017-12-02T13:27:21.847Z,7.54
2017-12-02T13:29:50.133Z,7.48
2017-12-02T13:32:18.457Z,7.30
2017-12-02T13:34:46.853Z,7.26
2017-12-02T13:37:15.328Z,7.04
2017-12-02T13:39:43.595Z,6.76
2017-12-02T13:42:14.239Z,6.42
2017-12-02T13:44:42.546Z,5.86
2017-12-02T13:47:10.844Z,6.03
2017-12-02T13:49:39.170Z,5.89
2017-12-02T13:52:07.437Z,5.96
2017-12-02T13:54:35.784Z,6.00
2017-12-02T13:57:04.928Z,5.99
2017-12-02T13:59:33.252Z,6.05
2017-12-02T14:02:01.576Z,5.62
2017-12-02T14:04:29.850Z,5.91
2017-12-02T14:06:58.131Z,5.91
2017-12-02T14:09:26.483Z,5.65
2017-12-02T14:11:54.766Z,5.76
2017-12-02T14:14:23.063Z,5.76
2017-12-02T14:16:51.415Z,5.78
2017-12-02T14:19:19.714Z,5.76
2017-12-02T14:21:48.040Z,5.76
2017-12-02T14:24:16.356Z,5.66
2017-12-02T14:26:46.545Z,5.74
2017-12-02T14:29:14.852Z,5.66
2017-12-02T14:31:43.131Z,5.63
2017-12-02T14:34:11.411Z,5.54
2017-12-02T14:36:39.679Z,5.53
2017-12-02T14:39:08.044Z,5.41
2017-12-02T14:41:36.397Z,5.36
2017-12-02T14:44:04.730Z,5.44
2017-12-02T14:46:33.083Z,5.50
2017-12-02T14:49:01.412Z,5.37
2017-12-02T14:51:29.698Z,5.42
2017-12-02T14:53:58.023Z,5.35
2017-12-02T14:56:27.108Z,5.31
2017-12-02T14:58:55.411Z,5.22
2017-12-02T15:01:23.672Z,5.28
2017-12-02T15:03:51.981Z,5.14
2017-12-02T15:06:20.316Z,5.06
2017-12-02T15:08:48.688Z,5.01
2017-12-02T15:11:16.973Z,4.95
2017-12-02T15:13:45.245Z,5.58
2017-12-02T15:16:13.644Z,8.07
2017-12-02T15:18:41.924Z,9.67
2017-12-02T15:21:11.132Z,8.04
2017-12-02T15:23:39.431Z,6.90
2017-12-02T15:26:07.753Z,5.61
2017-12-02T15:28:36.507Z,5.24
2017-12-02T15:31:05.328Z,5.07
2017-12-02T15:33:33.598Z,4.71
2017-12-02T15:36:01.892Z,4.42
2017-12-02T15:38:30.223Z,4.54
2017-12-02T15:40:58.509Z,4.37
2017-12-02T15:43:26.819Z,4.34
2017-12-02T15:45:55.109Z,4.08
2017-12-02T15:48:23.426Z,3.82
2017-12-02T15:50:51.741Z,3.82
2017-12-02T15:53:20.011Z,3.98
2017-12-02T15:55:50.856Z,3.88
2017-12-02T15:58:19.173Z,3.70
2017-12-02T16:00:47.493Z,3.41
2017-12-02T16:03:15.796Z,3.26
2017-12-02T16:05:44.351Z,3.17
2017-12-02T16:08:12.652Z,3.32
2017-12-02T16:10:40.983Z,3.36
2017-12-02T16:13:11.059Z,3.11
2017-12-02T16:15:39.339Z,3.00
2017-12-02T16:18:07.663Z,3.07
2017-12-02T16:20:36.185Z,3.16
2017-12-02T16:23:05.000Z,3.24
2017-12-02T16:25:33.335Z,3.26
2017-12-02T16:28:01.621Z,3.38
2017-12-02T16:30:29.962Z,3.63
2017-12-02T16:32:58.269Z,3.65
2017-12-02T16:35:27.509Z,3.61
2017-12-02T16:37:55.775Z,3.65
2017-12-02T16:40:24.103Z,3.49
2017-12-02T16:42:52.395Z,3.50
2017-12-02T16:45:20.697Z,3.28
2017-12-02T16:47:49.050Z,3.22
2017-12-02T16:50:17.370Z,3.09
2017-12-02T16:52:45.669Z,3.09
2017-12-02T16:55:13.982Z,2.97
2017-12-02T16:57:42.243Z,3.09
2017-12-02T17:00:10.528Z,3.18
2017-12-02T17:02:38.894Z,3.18
2017-12-02T17:05:07.124Z,3.17
2017-12-02T17:07:35.716Z,2.76
2017-12-02T17:10:04.105Z,3.28
2017-12-02T17:12:34.478Z,3.24
2017-12-02T17:15:02.812Z,3.17
2017-12-02T17:17:31.218Z,3.29
2017-12-02T17:19:59.506Z,3.25
2017-12-02T17:22:27.791Z,2.90
2017-12-02T17:24:56.096Z,2.67
2017-12-02T17:27:25.025Z,2.42
2017-12-02T17:29:53.351Z,2.45
2017-12-02T17:32:21.738Z,2.72
2017-12-02T17:34:51.767Z,2.94
2017-12-02T17:37:20.113Z,3.07
2017-12-02T17:39:49.164Z,3.22
2017-12-02T17:42:19.077Z,3.04
2017-12-02T17:44:47.579Z,3.13
2017-12-02T17:47:16.853Z,3.10
2017-12-02T17:49:56.288Z,3.16
2017-12-02T17:52:28.322Z,3.12
2017-12-02T17:54:56.806Z,3.00
2017-12-02T17:58:29.146Z,3.13
2017-12-02T18:01:06.219Z,3.10
2017-12-02T18:03:35.798Z,3.06
2017-12-02T18:06:04.139Z,2.88
2017-12-02T18:08:32.427Z,2.71
2017-12-02T18:11:00.763Z,2.83
2017-12-02T18:13:29.244Z,2.81
2017-12-02T18:15:57.508Z,2.76
2017-12-02T18:18:25.809Z,2.66
2017-12-02T18:20:54.156Z,2.83
2017-12-02T18:23:22.461Z,2.74
2017-12-02T18:25:51.661Z,2.81
2017-12-02T18:28:19.949Z,2.98
2017-12-02T18:30:48.226Z,3.00
2017-12-02T18:33:16.519Z,3.15
2017-12-02T18:35:44.828Z,3.06
2017-12-02T18:38:13.158Z,3.11
2017-12-02T18:40:41.472Z,3.07
2017-12-02T18:43:09.778Z,3.13
2017-12-02T18:45:38.992Z,3.19
2017-12-02T18:48:07.270Z,3.05
2017-12-02T18:50:35.581Z,3.10
2017-12-02T18:53:04.769Z,3.21
2017-12-02T18:55:33.047Z,3.20
2017-12-02T18:58:01.319Z,3.21
2017-12-02T19:00:29.684Z,3.20
2017-12-02T19:02:57.988Z,3.11
2017-12-02T19:05:26.305Z,3.27
2017-12-02T19:07:54.592Z,3.37
2017-12-02T19:10:22.892Z,3.49
2017-12-02T19:12:51.203Z,3.42
2017-12-02T19:15:19.466Z,3.50
2017-12-02T19:17:47.817Z,3.57
2017-12-02T19:20:16.088Z,3.57
2017-12-02T19:22:44.416Z,3.42
2017-12-02T19:25:12.752Z,3.51
2017-12-02T19:27:41.138Z,3.55
2017-12-02T19:30:09.445Z,3.63
2017-12-02T19:32:37.784Z,3.59
2017-12-02T19:35:06.368Z,3.47
2017-12-02T19:37:34.638Z,3.37
2017-12-02T19:40:03.003Z,3.41
2017-12-02T19:42:31.272Z,3.54
2017-12-02T19:44:59.566Z,3.47
2017-12-02T19:47:27.859Z,3.50
2017-12-02T19:49:56.204Z,3.56
2017-12-02T19:52:24.499Z,3.68
2017-12-02T19:54:52.777Z,3.65
2017-12-02T19:57:21.067Z,3.51
2017-12-02T19:59:49.371Z,3.50
2017-12-02T20:02:17.692Z,3.54
2017-12-02T20:04:46.598Z,3.47
2017-12-02T20:07:15.155Z,3.52
2017-12-02T20:09:43.430Z,3.54
2017-12-02T20:12:11.751Z,3.49
2017-12-02T20:14:40.084Z,3.53
2017-12-02T20:17:08.371Z,3.52
2017-12-02T20:19:36.684Z,3.50
2017-12-02T20:22:05.410Z,3.54
2017-12-02T20:24:33.708Z,3.51
2017-12-02T20:27:02.012Z,3.57
2017-12-02T20:29:30.324Z,3.40
2017-12-02T20:31:58.621Z,3.56
2017-12-02T20:34:26.903Z,3.58
2017-12-02T20:36:55.168Z,3.64
2017-12-02T20:39:23.503Z,3.72
2017-12-02T20:41:51.808Z,3.74
2017-12-02T20:44:20.126Z,3.64
2017-12-02T20:46:50.875Z,3.80
2017-12-02T20:49:19.214Z,3.65
2017-12-02T20:51:47.496Z,3.73
2017-12-02T20:54:15.789Z,3.73
2017-12-02T20:56:44.099Z,3.65
2017-12-02T20:59:12.925Z,3.38
2017-12-02T21:01:42.762Z,3.23
2017-12-02T21:04:11.028Z,3.06
2017-12-02T21:06:39.354Z,3.00
2017-12-02T21:09:07.672Z,3.23
2017-12-02T21:11:35.955Z,3.20
2017-12-02T21:14:05.303Z,3.05
2017-12-02T21:16:33.681Z,3.09
2017-12-02T21:19:03.116Z,3.26
2017-12-02T21:21:31.825Z,3.33
2017-12-02T21:24:03.719Z,3.25
2017-12-02T21:26:32.049Z,3.25
2017-12-02T21:29:00.454Z,3.46
2017-12-02T21:31:28.787Z,3.54
2017-12-02T21:33:57.918Z,3.65
2017-12-02T21:36:26.946Z,3.74
2017-12-02T21:38:55.335Z,3.74
2017-12-02T21:41:23.739Z,3.80
2017-12-02T21:43:52.114Z,3.78
2017-12-02T21:46:20.417Z,3.68
2017-12-02T21:48:48.735Z,3.66
2017-12-02T21:51:17.246Z,3.66
2017-12-02T21:53:45.599Z,3.60
2017-12-02T21:56:13.886Z,3.64
2017-12-02T21:58:42.176Z,3.64
2017-12-02T22:01:10.454Z,3.63
2017-12-02T22:03:38.826Z,3.59
2017-12-02T22:06:07.144Z,3.31
2017-12-02T22:08:35.563Z,3.46
2017-12-02T22:11:04.421Z,-0.16
2017-12-02T22:13:32.672Z,3.37
2017-12-02T22:16:00.971Z,3.39
2017-12-02T22:18:29.722Z,3.46
2017-12-02T22:20:58.020Z,2.97
2017-12-02T22:23:26.293Z,3.12
2017-12-02T22:25:54.624Z,3.18
2017-12-02T22:28:22.955Z,3.32
2017-12-02T22:30:51.243Z,3.30
2017-12-02T22:33:19.562Z,3.23
2017-12-02T22:35:47.839Z,3.37
2017-12-02T22:38:16.170Z,3.38
2017-12-02T22:40:44.786Z,3.39
2017-12-02T22:43:13.101Z,3.26
2017-12-02T22:45:41.414Z,3.20
2017-12-02T22:48:09.700Z,3.04
2017-12-02T22:50:37.996Z,3.12
2017-12-02T22:53:06.288Z,3.12
2017-12-02T22:55:34.594Z,3.08
2017-12-02T22:58:02.930Z,3.16
2017-12-02T23:00:31.233Z,3.25
2017-12-02T23:02:59.483Z,3.22
2017-12-02T23:05:27.759Z,3.20
2017-12-02T23:07:56.080Z,3.46
2017-12-02T23:10:24.375Z,3.57
2017-12-02T23:12:52.681Z,3.45
2017-12-02T23:15:20.934Z,3.47
2017-12-02T23:17:49.266Z,3.39
2017-12-02T23:20:17.547Z,3.52
2017-12-02T23:22:45.863Z,3.47
2017-12-02T23:25:14.728Z,3.45
2017-12-02T23:27:43.090Z,3.41
2017-12-02T23:30:12.051Z,3.40
2017-12-02T23:32:40.333Z,3.50
2017-12-02T23:35:08.703Z,3.52
2017-12-02T23:37:36.997Z,3.41
2017-12-02T23:40:05.331Z,3.41
2017-12-02T23:42:33.646Z,3.41
2017-12-02T23:45:01.923Z,3.47
2017-12-02T23:47:30.489Z,3.36
2017-12-02T23:49:58.781Z,3.32
2017-12-02T23:52:27.085Z,3.17
2017-12-02T23:54:55.409Z,3.31
2017-12-02T23:57:24.576Z,3.43
2017-12-02T23:59:52.900Z,3.39
